sensor_id;sensor_type;location;lat;lon;timestamp;P1;durP1;ratioP1;P2;durP2;ratioP2
46463;SDS011;32161;48.148;-1.554;2023-03-14T00:00:07;4.03;;;1.40;;
46463;SDS011;32161;48.148;-1.554;2023-03-14T00:02:37;7.15;;;1.50;;
46463;SDS011;32161;48.148;-1.554;2023-03-14T00:05:06;5.10;;;1.83;;
46463;SDS011;32161;48.148;-1.554;2023-03-14T00:07:36;4.43;;;1.00;;
46463;SDS011;32161;48.148;-1.554;2023-03-14T00:10:05;3.08;;;0.93;;
46463;SDS011;32161;48.148;-1.554;2023-03-14T00:12:37;6.38;;;1.02;;
46463;SDS011;32161;48.148;-1.554;2023-03-14T00:15:06;3.38;;;1.25;;
46463;SDS011;32161;48.148;-1.554;2023-03-14T00:17:35;4.18;;;0.80;;
46463;SDS011;32161;48.148;-1.554;2023-03-14T00:20:03;1.65;;;0.77;;
46463;SDS011;32161;48.148;-1.554;2023-03-14T00:22:35;3.03;;;0.75;;
46463;SDS011;32161;48.148;-1.554;2023-03-14T00:25:04;2.00;;;0.80;;
46463;SDS011;32161;48.148;-1.554;2023-03-14T00:27:33;4.40;;;0.73;;
46463;SDS011;32161;48.148;-1.554;2023-03-14T00:30:04;3.03;;;0.60;;
46463;SDS011;32161;48.148;-1.554;2023-03-14T00:32:34;4.78;;;0.88;;
46463;SDS011;32161;48.148;-1.554;2023-03-14T00:35:02;3.80;;;0.70;;
46463;SDS011;32161;48.148;-1.554;2023-03-14T00:37:30;3.35;;;0.70;;
46463;SDS011;32161;48.148;-1.554;2023-03-14T00:39:57;2.97;;;0.90;;
46463;SDS011;32161;48.148;-1.554;2023-03-14T00:42:25;2.25;;;0.80;;
46463;SDS011;32161;48.148;-1.554;2023-03-14T00:44:53;2.33;;;0.90;;
46463;SDS011;32161;48.148;-1.554;2023-03-14T00:47:22;3.60;;;1.10;;
46463;SDS011;32161;48.148;-1.554;2023-03-14T00:49:49;4.28;;;0.77;;
46463;SDS011;32161;48.148;-1.554;2023-03-14T00:52:17;3.25;;;1.10;;
46463;SDS011;32161;48.148;-1.554;2023-03-14T00:54:44;4.68;;;1.10;;
46463;SDS011;32161;48.148;-1.554;2023-03-14T00:57:12;4.53;;;0.80;;
46463;SDS011;32161;48.148;-1.554;2023-03-14T00:59:39;2.95;;;1.15;;
46463;SDS011;32161;48.148;-1.554;2023-03-14T01:02:07;5.13;;;0.85;;
46463;SDS011;32161;48.148;-1.554;2023-03-14T01:04:36;3.90;;;0.50;;
46463;SDS011;32161;48.148;-1.554;2023-03-14T01:07:04;2.05;;;0.73;;
46463;SDS011;32161;48.148;-1.554;2023-03-14T01:09:32;1.35;;;0.68;;
46463;SDS011;32161;48.148;-1.554;2023-03-14T01:11:59;3.33;;;0.45;;
46463;SDS011;32161;48.148;-1.554;2023-03-14T01:14:27;1.65;;;0.47;;
46463;SDS011;32161;48.148;-1.554;2023-03-14T01:16:54;3.40;;;0.60;;
46463;SDS011;32161;48.148;-1.554;2023-03-14T01:19:25;1.42;;;0.40;;
46463;SDS011;32161;48.148;-1.554;2023-03-14T01:21:54;3.05;;;0.45;;
46463;SDS011;32161;48.148;-1.554;2023-03-14T01:24:22;3.25;;;0.50;;
46463;SDS011;32161;48.148;-1.554;2023-03-14T01:26:50;1.75;;;0.30;;
46463;SDS011;32161;48.148;-1.554;2023-03-14T01:29:17;1.65;;;0.60;;
46463;SDS011;32161;48.148;-1.554;2023-03-14T01:31:45;3.33;;;0.80;;
46463;SDS011;32161;48.148;-1.554;2023-03-14T01:34:12;7.43;;;1.52;;
46463;SDS011;32161;48.148;-1.554;2023-03-14T01:36:40;5.72;;;1.27;;
46463;SDS011;32161;48.148;-1.554;2023-03-14T01:39:09;7.00;;;1.23;;
46463;SDS011;32161;48.148;-1.554;2023-03-14T01:41:38;9.73;;;1.92;;
46463;SDS011;32161;48.148;-1.554;2023-03-14T01:44:08;5.78;;;1.42;;
46463;SDS011;32161;48.148;-1.554;2023-03-14T01:46:38;8.53;;;1.80;;
46463;SDS011;32161;48.148;-1.554;2023-03-14T01:49:09;9.80;;;1.67;;
46463;SDS011;32161;48.148;-1.554;2023-03-14T01:51:52;10.35;;;1.88;;
46463;SDS011;32161;48.148;-1.554;2023-03-14T01:54:26;11.15;;;2.08;;
46463;SDS011;32161;48.148;-1.554;2023-03-14T01:57:02;11.90;;;2.65;;
46463;SDS011;32161;48.148;-1.554;2023-03-14T01:59:35;12.73;;;1.85;;
46463;SDS011;32161;48.148;-1.554;2023-03-14T02:02:05;14.73;;;2.33;;
46463;SDS011;32161;48.148;-1.554;2023-03-14T02:04:36;16.17;;;3.37;;
46463;SDS011;32161;48.148;-1.554;2023-03-14T02:07:05;12.57;;;2.13;;
46463;SDS011;32161;48.148;-1.554;2023-03-14T02:09:41;19.83;;;2.00;;
46463;SDS011;32161;48.148;-1.554;2023-03-14T02:12:09;13.68;;;2.83;;
46463;SDS011;32161;48.148;-1.554;2023-03-14T02:14:41;12.82;;;2.53;;
46463;SDS011;32161;48.148;-1.554;2023-03-14T02:17:13;9.65;;;2.08;;
46463;SDS011;32161;48.148;-1.554;2023-03-14T02:19:47;13.77;;;2.72;;
46463;SDS011;32161;48.148;-1.554;2023-03-14T02:22:38;15.48;;;2.80;;
46463;SDS011;32161;48.148;-1.554;2023-03-14T02:25:11;11.63;;;2.55;;
46463;SDS011;32161;48.148;-1.554;2023-03-14T02:27:44;14.50;;;2.40;;
46463;SDS011;32161;48.148;-1.554;2023-03-14T02:30:14;13.40;;;2.67;;
46463;SDS011;32161;48.148;-1.554;2023-03-14T02:32:45;15.13;;;2.80;;
46463;SDS011;32161;48.148;-1.554;2023-03-14T02:35:18;16.02;;;2.40;;
46463;SDS011;32161;48.148;-1.554;2023-03-14T02:37:50;14.43;;;2.70;;
46463;SDS011;32161;48.148;-1.554;2023-03-14T02:40:23;20.05;;;2.60;;
46463;SDS011;32161;48.148;-1.554;2023-03-14T02:42:52;17.90;;;2.70;;
46463;SDS011;32161;48.148;-1.554;2023-03-14T02:48:14;17.95;;;3.13;;
46463;SDS011;32161;48.148;-1.554;2023-03-14T02:50:45;23.05;;;3.03;;
46463;SDS011;32161;48.148;-1.554;2023-03-14T02:53:16;10.18;;;2.15;;
46463;SDS011;32161;48.148;-1.554;2023-03-14T02:55:47;15.07;;;2.00;;
46463;SDS011;32161;48.148;-1.554;2023-03-14T02:58:17;19.77;;;3.40;;
46463;SDS011;32161;48.148;-1.554;2023-03-14T03:00:45;12.80;;;1.92;;
46463;SDS011;32161;48.148;-1.554;2023-03-14T03:03:13;13.25;;;2.40;;
46463;SDS011;32161;48.148;-1.554;2023-03-14T03:05:41;12.15;;;2.00;;
46463;SDS011;32161;48.148;-1.554;2023-03-14T03:08:09;16.52;;;2.92;;
46463;SDS011;32161;48.148;-1.554;2023-03-14T03:10:37;13.20;;;2.28;;
46463;SDS011;32161;48.148;-1.554;2023-03-14T03:13:05;11.25;;;2.00;;
46463;SDS011;32161;48.148;-1.554;2023-03-14T03:15:34;16.70;;;3.08;;
46463;SDS011;32161;48.148;-1.554;2023-03-14T03:18:01;14.20;;;2.65;;
46463;SDS011;32161;48.148;-1.554;2023-03-14T03:20:29;14.77;;;2.28;;
46463;SDS011;32161;48.148;-1.554;2023-03-14T03:22:57;10.10;;;2.05;;
46463;SDS011;32161;48.148;-1.554;2023-03-14T03:25:25;9.40;;;1.60;;
46463;SDS011;32161;48.148;-1.554;2023-03-14T03:27:53;11.30;;;1.80;;
46463;SDS011;32161;48.148;-1.554;2023-03-14T03:30:21;14.75;;;1.60;;
46463;SDS011;32161;48.148;-1.554;2023-03-14T03:32:50;9.48;;;1.45;;
46463;SDS011;32161;48.148;-1.554;2023-03-14T03:35:17;7.57;;;1.55;;
46463;SDS011;32161;48.148;-1.554;2023-03-14T03:37:45;8.63;;;2.00;;
46463;SDS011;32161;48.148;-1.554;2023-03-14T03:40:13;9.07;;;1.58;;
46463;SDS011;32161;48.148;-1.554;2023-03-14T03:42:40;8.73;;;1.30;;
46463;SDS011;32161;48.148;-1.554;2023-03-14T03:45:08;13.30;;;2.20;;
46463;SDS011;32161;48.148;-1.554;2023-03-14T03:47:36;10.23;;;1.70;;
46463;SDS011;32161;48.148;-1.554;2023-03-14T03:50:05;7.22;;;1.75;;
46463;SDS011;32161;48.148;-1.554;2023-03-14T03:52:34;11.48;;;2.28;;
46463;SDS011;32161;48.148;-1.554;2023-03-14T03:55:02;13.25;;;2.05;;
46463;SDS011;32161;48.148;-1.554;2023-03-14T03:57:30;11.15;;;2.65;;
46463;SDS011;32161;48.148;-1.554;2023-03-14T03:59:57;13.90;;;2.58;;
46463;SDS011;32161;48.148;-1.554;2023-03-14T04:02:25;9.15;;;1.80;;
46463;SDS011;32161;48.148;-1.554;2023-03-14T04:04:52;15.25;;;1.98;;
46463;SDS011;32161;48.148;-1.554;2023-03-14T04:07:21;12.18;;;2.33;;
46463;SDS011;32161;48.148;-1.554;2023-03-14T04:09:49;10.48;;;2.08;;
46463;SDS011;32161;48.148;-1.554;2023-03-14T04:12:16;16.10;;;3.33;;
46463;SDS011;32161;48.148;-1.554;2023-03-14T04:14:45;10.73;;;2.63;;
46463;SDS011;32161;48.148;-1.554;2023-03-14T04:17:12;12.20;;;2.30;;
46463;SDS011;32161;48.148;-1.554;2023-03-14T04:19:40;14.23;;;2.42;;
46463;SDS011;32161;48.148;-1.554;2023-03-14T04:22:08;13.38;;;2.28;;
46463;SDS011;32161;48.148;-1.554;2023-03-14T04:24:37;12.73;;;2.75;;
46463;SDS011;32161;48.148;-1.554;2023-03-14T04:27:04;8.73;;;2.25;;
46463;SDS011;32161;48.148;-1.554;2023-03-14T04:29:32;14.68;;;2.58;;
46463;SDS011;32161;48.148;-1.554;2023-03-14T04:31:59;20.10;;;2.25;;
46463;SDS011;32161;48.148;-1.554;2023-03-14T04:34:27;10.77;;;1.60;;
46463;SDS011;32161;48.148;-1.554;2023-03-14T04:36:54;11.38;;;2.33;;
46463;SDS011;32161;48.148;-1.554;2023-03-14T04:39:22;13.73;;;2.10;;
46463;SDS011;32161;48.148;-1.554;2023-03-14T04:41:51;13.13;;;2.45;;
46463;SDS011;32161;48.148;-1.554;2023-03-14T04:44:19;27.80;;;3.80;;
46463;SDS011;32161;48.148;-1.554;2023-03-14T04:46:46;16.30;;;2.10;;
46463;SDS011;32161;48.148;-1.554;2023-03-14T04:49:14;11.88;;;3.00;;
46463;SDS011;32161;48.148;-1.554;2023-03-14T04:51:41;17.20;;;3.17;;
46463;SDS011;32161;48.148;-1.554;2023-03-14T04:54:09;14.32;;;2.58;;
46463;SDS011;32161;48.148;-1.554;2023-03-14T04:56:37;13.45;;;3.25;;
46463;SDS011;32161;48.148;-1.554;2023-03-14T04:59:05;12.48;;;1.77;;
46463;SDS011;32161;48.148;-1.554;2023-03-14T05:01:34;10.52;;;1.70;;
46463;SDS011;32161;48.148;-1.554;2023-03-14T05:04:01;10.90;;;1.90;;
46463;SDS011;32161;48.148;-1.554;2023-03-14T05:06:29;12.73;;;2.20;;
46463;SDS011;32161;48.148;-1.554;2023-03-14T05:08:56;11.27;;;2.17;;
46463;SDS011;32161;48.148;-1.554;2023-03-14T05:11:24;15.35;;;2.97;;
46463;SDS011;32161;48.148;-1.554;2023-03-14T05:13:51;13.60;;;2.90;;
46463;SDS011;32161;48.148;-1.554;2023-03-14T05:16:20;15.30;;;2.53;;
46463;SDS011;32161;48.148;-1.554;2023-03-14T05:18:48;13.90;;;2.88;;
46463;SDS011;32161;48.148;-1.554;2023-03-14T05:21:16;15.77;;;3.67;;
46463;SDS011;32161;48.148;-1.554;2023-03-14T05:23:44;16.85;;;2.70;;
46463;SDS011;32161;48.148;-1.554;2023-03-14T05:26:11;11.85;;;2.38;;
46463;SDS011;32161;48.148;-1.554;2023-03-14T05:28:39;17.77;;;3.58;;
46463;SDS011;32161;48.148;-1.554;2023-03-14T05:31:07;21.02;;;2.42;;
46463;SDS011;32161;48.148;-1.554;2023-03-14T05:33:36;16.30;;;3.35;;
46463;SDS011;32161;48.148;-1.554;2023-03-14T05:36:04;14.35;;;2.50;;
46463;SDS011;32161;48.148;-1.554;2023-03-14T05:38:33;18.42;;;3.10;;
46463;SDS011;32161;48.148;-1.554;2023-03-14T05:41:00;18.85;;;3.42;;
46463;SDS011;32161;48.148;-1.554;2023-03-14T05:43:28;17.60;;;3.17;;
46463;SDS011;32161;48.148;-1.554;2023-03-14T05:45:56;15.05;;;2.80;;
46463;SDS011;32161;48.148;-1.554;2023-03-14T05:48:23;13.65;;;3.05;;
46463;SDS011;32161;48.148;-1.554;2023-03-14T05:50:55;22.35;;;3.13;;
46463;SDS011;32161;48.148;-1.554;2023-03-14T05:53:24;18.75;;;2.75;;
46463;SDS011;32161;48.148;-1.554;2023-03-14T05:55:54;16.85;;;3.17;;
46463;SDS011;32161;48.148;-1.554;2023-03-14T05:58:23;20.20;;;2.65;;
46463;SDS011;32161;48.148;-1.554;2023-03-14T06:00:50;11.77;;;2.38;;
46463;SDS011;32161;48.148;-1.554;2023-03-14T06:03:18;20.33;;;2.50;;
46463;SDS011;32161;48.148;-1.554;2023-03-14T06:05:46;19.50;;;3.40;;
46463;SDS011;32161;48.148;-1.554;2023-03-14T06:08:17;14.65;;;2.58;;
46463;SDS011;32161;48.148;-1.554;2023-03-14T06:10:45;16.33;;;3.97;;
46463;SDS011;32161;48.148;-1.554;2023-03-14T06:13:12;13.75;;;3.35;;
46463;SDS011;32161;48.148;-1.554;2023-03-14T06:15:40;18.00;;;2.70;;
46463;SDS011;32161;48.148;-1.554;2023-03-14T06:18:08;18.77;;;2.60;;
46463;SDS011;32161;48.148;-1.554;2023-03-14T06:20:36;20.80;;;3.22;;
46463;SDS011;32161;48.148;-1.554;2023-03-14T06:23:04;21.50;;;3.35;;
46463;SDS011;32161;48.148;-1.554;2023-03-14T06:25:33;19.00;;;3.10;;
46463;SDS011;32161;48.148;-1.554;2023-03-14T06:28:02;15.95;;;2.45;;
46463;SDS011;32161;48.148;-1.554;2023-03-14T06:30:30;15.88;;;2.58;;
46463;SDS011;32161;48.148;-1.554;2023-03-14T06:32:57;14.27;;;3.28;;
46463;SDS011;32161;48.148;-1.554;2023-03-14T06:35:25;19.65;;;3.08;;
46463;SDS011;32161;48.148;-1.554;2023-03-14T06:37:52;18.58;;;2.53;;
46463;SDS011;32161;48.148;-1.554;2023-03-14T06:40:20;13.70;;;2.80;;
46463;SDS011;32161;48.148;-1.554;2023-03-14T06:42:49;13.75;;;2.97;;
46463;SDS011;32161;48.148;-1.554;2023-03-14T06:45:17;18.85;;;2.88;;
46463;SDS011;32161;48.148;-1.554;2023-03-14T06:47:45;21.88;;;2.60;;
46463;SDS011;32161;48.148;-1.554;2023-03-14T06:50:12;15.35;;;3.33;;
46463;SDS011;32161;48.148;-1.554;2023-03-14T06:52:40;18.23;;;3.30;;
46463;SDS011;32161;48.148;-1.554;2023-03-14T06:55:12;13.95;;;2.55;;
46463;SDS011;32161;48.148;-1.554;2023-03-14T06:57:40;16.05;;;2.60;;
46463;SDS011;32161;48.148;-1.554;2023-03-14T07:00:11;12.10;;;2.40;;
46463;SDS011;32161;48.148;-1.554;2023-03-14T07:02:40;11.88;;;2.13;;
46463;SDS011;32161;48.148;-1.554;2023-03-14T07:05:07;18.90;;;2.53;;
46463;SDS011;32161;48.148;-1.554;2023-03-14T07:07:36;20.52;;;2.53;;
46463;SDS011;32161;48.148;-1.554;2023-03-14T07:10:04;12.93;;;2.13;;
46463;SDS011;32161;48.148;-1.554;2023-03-14T07:12:33;18.17;;;2.92;;
46463;SDS011;32161;48.148;-1.554;2023-03-14T07:15:01;17.48;;;2.20;;
46463;SDS011;32161;48.148;-1.554;2023-03-14T07:17:31;12.30;;;2.03;;
46463;SDS011;32161;48.148;-1.554;2023-03-14T07:19:58;11.82;;;1.75;;
46463;SDS011;32161;48.148;-1.554;2023-03-14T07:22:26;12.75;;;2.03;;
46463;SDS011;32161;48.148;-1.554;2023-03-14T07:24:53;13.73;;;2.10;;
46463;SDS011;32161;48.148;-1.554;2023-03-14T07:27:21;15.05;;;2.80;;
46463;SDS011;32161;48.148;-1.554;2023-03-14T07:29:48;13.38;;;2.72;;
46463;SDS011;32161;48.148;-1.554;2023-03-14T07:32:16;12.60;;;2.28;;
46463;SDS011;32161;48.148;-1.554;2023-03-14T07:34:45;11.00;;;2.05;;
46463;SDS011;32161;48.148;-1.554;2023-03-14T07:37:12;13.43;;;2.40;;
46463;SDS011;32161;48.148;-1.554;2023-03-14T07:39:40;9.60;;;1.65;;
46463;SDS011;32161;48.148;-1.554;2023-03-14T07:42:08;11.93;;;2.10;;
46463;SDS011;32161;48.148;-1.554;2023-03-14T07:44:36;8.30;;;1.75;;
46463;SDS011;32161;48.148;-1.554;2023-03-14T07:47:03;13.27;;;2.17;;
46463;SDS011;32161;48.148;-1.554;2023-03-14T07:49:31;9.07;;;2.22;;
46463;SDS011;32161;48.148;-1.554;2023-03-14T07:52:00;11.65;;;2.25;;
46463;SDS011;32161;48.148;-1.554;2023-03-14T07:54:28;12.32;;;1.98;;
46463;SDS011;32161;48.148;-1.554;2023-03-14T07:56:55;16.05;;;2.00;;
46463;SDS011;32161;48.148;-1.554;2023-03-14T07:59:24;9.55;;;1.98;;
46463;SDS011;32161;48.148;-1.554;2023-03-14T08:01:51;9.93;;;1.90;;
46463;SDS011;32161;48.148;-1.554;2023-03-14T08:04:19;10.55;;;2.40;;
46463;SDS011;32161;48.148;-1.554;2023-03-14T08:06:46;16.30;;;3.05;;
46463;SDS011;32161;48.148;-1.554;2023-03-14T08:09:15;11.70;;;1.98;;
46463;SDS011;32161;48.148;-1.554;2023-03-14T08:11:43;13.65;;;2.13;;
46463;SDS011;32161;48.148;-1.554;2023-03-14T08:14:10;10.32;;;1.88;;
46463;SDS011;32161;48.148;-1.554;2023-03-14T08:16:38;12.98;;;2.33;;
46463;SDS011;32161;48.148;-1.554;2023-03-14T08:19:05;11.50;;;1.85;;
46463;SDS011;32161;48.148;-1.554;2023-03-14T08:21:33;17.48;;;3.00;;
46463;SDS011;32161;48.148;-1.554;2023-03-14T08:24:01;9.32;;;1.88;;
46463;SDS011;32161;48.148;-1.554;2023-03-14T08:26:30;9.82;;;1.95;;
46463;SDS011;32161;48.148;-1.554;2023-03-14T08:28:57;14.63;;;2.10;;
46463;SDS011;32161;48.148;-1.554;2023-03-14T08:31:25;6.93;;;1.60;;
46463;SDS011;32161;48.148;-1.554;2023-03-14T08:33:53;8.88;;;1.90;;
46463;SDS011;32161;48.148;-1.554;2023-03-14T08:36:21;16.20;;;2.38;;
46463;SDS011;32161;48.148;-1.554;2023-03-14T08:38:48;12.98;;;2.35;;
46463;SDS011;32161;48.148;-1.554;2023-03-14T08:41:16;10.77;;;1.85;;
46463;SDS011;32161;48.148;-1.554;2023-03-14T08:43:44;10.85;;;2.65;;
46463;SDS011;32161;48.148;-1.554;2023-03-14T08:46:12;11.48;;;2.47;;
46463;SDS011;32161;48.148;-1.554;2023-03-14T08:48:40;10.43;;;3.08;;
46463;SDS011;32161;48.148;-1.554;2023-03-14T08:51:08;7.25;;;1.65;;
46463;SDS011;32161;48.148;-1.554;2023-03-14T08:53:39;9.75;;;1.60;;
46463;SDS011;32161;48.148;-1.554;2023-03-14T08:56:07;8.05;;;1.77;;
46463;SDS011;32161;48.148;-1.554;2023-03-14T08:58:36;14.30;;;2.83;;
46463;SDS011;32161;48.148;-1.554;2023-03-14T09:01:05;10.57;;;1.63;;
46463;SDS011;32161;48.148;-1.554;2023-03-14T09:03:34;14.93;;;2.10;;
46463;SDS011;32161;48.148;-1.554;2023-03-14T09:06:02;13.05;;;1.70;;
46463;SDS011;32161;48.148;-1.554;2023-03-14T09:08:31;12.25;;;1.73;;
46463;SDS011;32161;48.148;-1.554;2023-03-14T09:10:58;7.40;;;1.15;;
46463;SDS011;32161;48.148;-1.554;2023-03-14T09:13:26;15.75;;;2.40;;
46463;SDS011;32161;48.148;-1.554;2023-03-14T09:15:55;11.88;;;2.30;;
46463;SDS011;32161;48.148;-1.554;2023-03-14T09:18:25;17.20;;;2.08;;
46463;SDS011;32161;48.148;-1.554;2023-03-14T09:20:54;14.63;;;3.08;;
46463;SDS011;32161;48.148;-1.554;2023-03-14T09:23:22;11.50;;;1.92;;
46463;SDS011;32161;48.148;-1.554;2023-03-14T09:25:53;11.85;;;1.90;;
46463;SDS011;32161;48.148;-1.554;2023-03-14T09:28:21;13.68;;;2.13;;
46463;SDS011;32161;48.148;-1.554;2023-03-14T09:30:49;14.95;;;2.28;;
46463;SDS011;32161;48.148;-1.554;2023-03-14T09:33:17;8.57;;;2.10;;
46463;SDS011;32161;48.148;-1.554;2023-03-14T09:35:46;10.85;;;1.70;;
46463;SDS011;32161;48.148;-1.554;2023-03-14T09:38:14;14.85;;;2.03;;
46463;SDS011;32161;48.148;-1.554;2023-03-14T09:40:42;13.00;;;1.85;;
46463;SDS011;32161;48.148;-1.554;2023-03-14T09:43:10;12.00;;;2.10;;
46463;SDS011;32161;48.148;-1.554;2023-03-14T09:45:40;11.68;;;2.35;;
46463;SDS011;32161;48.148;-1.554;2023-03-14T09:48:12;9.52;;;1.90;;
46463;SDS011;32161;48.148;-1.554;2023-03-14T09:50:44;8.15;;;1.73;;
46463;SDS011;32161;48.148;-1.554;2023-03-14T09:53:18;11.93;;;2.47;;
46463;SDS011;32161;48.148;-1.554;2023-03-14T09:55:50;12.70;;;2.47;;
46463;SDS011;32161;48.148;-1.554;2023-03-14T09:58:20;8.65;;;1.98;;
46463;SDS011;32161;48.148;-1.554;2023-03-14T10:00:50;9.55;;;1.63;;
46463;SDS011;32161;48.148;-1.554;2023-03-14T10:03:22;12.70;;;2.55;;
46463;SDS011;32161;48.148;-1.554;2023-03-14T10:05:57;6.47;;;1.23;;
46463;SDS011;32161;48.148;-1.554;2023-03-14T10:08:24;8.35;;;1.75;;
46463;SDS011;32161;48.148;-1.554;2023-03-14T10:10:52;11.60;;;1.65;;
46463;SDS011;32161;48.148;-1.554;2023-03-14T10:13:21;7.65;;;1.30;;
46463;SDS011;32161;48.148;-1.554;2023-03-14T10:15:52;13.20;;;1.83;;
46463;SDS011;32161;48.148;-1.554;2023-03-14T10:18:22;6.45;;;1.23;;
46463;SDS011;32161;48.148;-1.554;2023-03-14T10:21:01;9.23;;;1.50;;
46463;SDS011;32161;48.148;-1.554;2023-03-14T10:23:33;8.30;;;1.60;;
46463;SDS011;32161;48.148;-1.554;2023-03-14T10:26:12;16.77;;;2.03;;
46463;SDS011;32161;48.148;-1.554;2023-03-14T10:28:43;10.88;;;1.70;;
46463;SDS011;32161;48.148;-1.554;2023-03-14T10:31:13;15.45;;;2.13;;
46463;SDS011;32161;48.148;-1.554;2023-03-14T10:33:41;10.98;;;2.00;;
46463;SDS011;32161;48.148;-1.554;2023-03-14T10:36:26;11.45;;;1.75;;
46463;SDS011;32161;48.148;-1.554;2023-03-14T10:38:57;4.75;;;1.60;;
46463;SDS011;32161;48.148;-1.554;2023-03-14T10:41:46;6.72;;;1.35;;
46463;SDS011;32161;48.148;-1.554;2023-03-14T10:44:19;8.85;;;1.80;;
46463;SDS011;32161;48.148;-1.554;2023-03-14T10:46:55;5.55;;;1.40;;
46463;SDS011;32161;48.148;-1.554;2023-03-14T10:49:27;11.02;;;1.63;;
46463;SDS011;32161;48.148;-1.554;2023-03-14T10:52:00;7.45;;;1.52;;
46463;SDS011;32161;48.148;-1.554;2023-03-14T10:54:38;10.90;;;1.67;;
46463;SDS011;32161;48.148;-1.554;2023-03-14T10:57:06;14.95;;;3.72;;
46463;SDS011;32161;48.148;-1.554;2023-03-14T10:59:36;14.43;;;1.90;;
46463;SDS011;32161;48.148;-1.554;2023-03-14T11:02:07;14.45;;;2.05;;
46463;SDS011;32161;48.148;-1.554;2023-03-14T11:05:10;8.55;;;1.52;;
46463;SDS011;32161;48.148;-1.554;2023-03-14T11:07:49;12.88;;;1.90;;
46463;SDS011;32161;48.148;-1.554;2023-03-14T11:10:23;10.27;;;2.20;;
46463;SDS011;32161;48.148;-1.554;2023-03-14T11:13:07;12.52;;;1.80;;
46463;SDS011;32161;48.148;-1.554;2023-03-14T11:15:45;11.48;;;1.85;;
46463;SDS011;32161;48.148;-1.554;2023-03-14T11:18:34;13.77;;;2.20;;
46463;SDS011;32161;48.148;-1.554;2023-03-14T11:21:31;9.32;;;2.28;;
46463;SDS011;32161;48.148;-1.554;2023-03-14T11:24:16;6.22;;;1.40;;
46463;SDS011;32161;48.148;-1.554;2023-03-14T11:26:59;10.90;;;1.30;;
46463;SDS011;32161;48.148;-1.554;2023-03-14T11:29:36;15.65;;;2.20;;
46463;SDS011;32161;48.148;-1.554;2023-03-14T11:32:11;13.23;;;2.30;;
46463;SDS011;32161;48.148;-1.554;2023-03-14T11:34:48;14.25;;;2.22;;
46463;SDS011;32161;48.148;-1.554;2023-03-14T11:37:21;14.00;;;1.92;;
46463;SDS011;32161;48.148;-1.554;2023-03-14T11:39:59;14.60;;;2.38;;
46463;SDS011;32161;48.148;-1.554;2023-03-14T11:42:35;17.25;;;2.80;;
46463;SDS011;32161;48.148;-1.554;2023-03-14T11:45:10;8.32;;;1.88;;
46463;SDS011;32161;48.148;-1.554;2023-03-14T11:47:45;12.07;;;2.75;;
46463;SDS011;32161;48.148;-1.554;2023-03-14T11:50:18;9.43;;;1.95;;
46463;SDS011;32161;48.148;-1.554;2023-03-14T11:52:50;16.70;;;2.45;;
46463;SDS011;32161;48.148;-1.554;2023-03-14T11:55:25;9.48;;;2.00;;
46463;SDS011;32161;48.148;-1.554;2023-03-14T11:58:00;8.52;;;1.67;;
46463;SDS011;32161;48.148;-1.554;2023-03-14T12:00:36;12.77;;;2.80;;
46463;SDS011;32161;48.148;-1.554;2023-03-14T12:03:09;7.85;;;2.33;;
46463;SDS011;32161;48.148;-1.554;2023-03-14T12:05:46;10.70;;;2.38;;
46463;SDS011;32161;48.148;-1.554;2023-03-14T12:08:33;6.07;;;1.70;;
46463;SDS011;32161;48.148;-1.554;2023-03-14T12:11:20;11.02;;;2.85;;
46463;SDS011;32161;48.148;-1.554;2023-03-14T12:14:00;10.45;;;2.00;;
46463;SDS011;32161;48.148;-1.554;2023-03-14T12:16:32;12.27;;;2.75;;
46463;SDS011;32161;48.148;-1.554;2023-03-14T12:22:00;9.55;;;2.13;;
46463;SDS011;32161;48.148;-1.554;2023-03-14T12:24:51;13.55;;;1.90;;
46463;SDS011;32161;48.148;-1.554;2023-03-14T12:30:32;13.48;;;1.45;;
46463;SDS011;32161;48.148;-1.554;2023-03-14T12:36:00;11.13;;;1.70;;
46463;SDS011;32161;48.148;-1.554;2023-03-14T12:39:25;13.77;;;2.25;;
46463;SDS011;32161;48.148;-1.554;2023-03-14T12:42:04;8.85;;;1.95;;
46463;SDS011;32161;48.148;-1.554;2023-03-14T12:44:47;10.95;;;1.73;;
46463;SDS011;32161;48.148;-1.554;2023-03-14T12:50:33;7.78;;;1.73;;
46463;SDS011;32161;48.148;-1.554;2023-03-14T12:56:26;17.58;;;3.65;;
46463;SDS011;32161;48.148;-1.554;2023-03-14T13:02:13;14.32;;;2.40;;
46463;SDS011;32161;48.148;-1.554;2023-03-14T13:04:51;8.20;;;2.20;;
46463;SDS011;32161;48.148;-1.554;2023-03-14T13:07:32;8.60;;;1.90;;
46463;SDS011;32161;48.148;-1.554;2023-03-14T13:10:05;10.57;;;1.60;;
46463;SDS011;32161;48.148;-1.554;2023-03-14T13:12:48;5.80;;;1.60;;
46463;SDS011;32161;48.148;-1.554;2023-03-14T13:15:24;9.02;;;1.98;;
46463;SDS011;32161;48.148;-1.554;2023-03-14T13:18:01;15.43;;;2.80;;
46463;SDS011;32161;48.148;-1.554;2023-03-14T13:20:36;12.73;;;1.88;;
46463;SDS011;32161;48.148;-1.554;2023-03-14T13:23:18;10.00;;;1.92;;
46463;SDS011;32161;48.148;-1.554;2023-03-14T13:25:47;7.65;;;1.95;;
46463;SDS011;32161;48.148;-1.554;2023-03-14T13:28:15;17.85;;;2.00;;
46463;SDS011;32161;48.148;-1.554;2023-03-14T13:30:44;11.95;;;2.25;;
46463;SDS011;32161;48.148;-1.554;2023-03-14T13:33:16;12.98;;;2.63;;
46463;SDS011;32161;48.148;-1.554;2023-03-14T13:35:46;17.05;;;3.35;;
46463;SDS011;32161;48.148;-1.554;2023-03-14T13:38:17;12.65;;;3.22;;
46463;SDS011;32161;48.148;-1.554;2023-03-14T13:40:48;11.75;;;2.85;;
46463;SDS011;32161;48.148;-1.554;2023-03-14T13:43:18;10.88;;;2.60;;
46463;SDS011;32161;48.148;-1.554;2023-03-14T13:45:52;17.17;;;3.35;;
46463;SDS011;32161;48.148;-1.554;2023-03-14T13:48:25;22.10;;;3.30;;
46463;SDS011;32161;48.148;-1.554;2023-03-14T13:50:55;23.52;;;4.18;;
46463;SDS011;32161;48.148;-1.554;2023-03-14T13:53:27;21.00;;;3.30;;
46463;SDS011;32161;48.148;-1.554;2023-03-14T13:55:54;14.38;;;2.95;;
46463;SDS011;32161;48.148;-1.554;2023-03-14T13:58:26;17.25;;;3.00;;
46463;SDS011;32161;48.148;-1.554;2023-03-14T14:00:56;14.40;;;2.72;;
46463;SDS011;32161;48.148;-1.554;2023-03-14T14:03:32;9.93;;;2.20;;
46463;SDS011;32161;48.148;-1.554;2023-03-14T14:06:05;8.43;;;1.98;;
46463;SDS011;32161;48.148;-1.554;2023-03-14T14:08:43;11.38;;;1.90;;
46463;SDS011;32161;48.148;-1.554;2023-03-14T14:11:14;8.95;;;2.83;;
46463;SDS011;32161;48.148;-1.554;2023-03-14T14:13:54;10.38;;;1.98;;
46463;SDS011;32161;48.148;-1.554;2023-03-14T14:16:24;16.52;;;2.40;;
46463;SDS011;32161;48.148;-1.554;2023-03-14T14:18:56;10.73;;;1.85;;
46463;SDS011;32161;48.148;-1.554;2023-03-14T14:21:25;13.50;;;2.63;;
46463;SDS011;32161;48.148;-1.554;2023-03-14T14:23:53;8.55;;;1.45;;
46463;SDS011;32161;48.148;-1.554;2023-03-14T14:26:21;6.82;;;1.30;;
46463;SDS011;32161;48.148;-1.554;2023-03-14T14:28:57;14.18;;;1.55;;
46463;SDS011;32161;48.148;-1.554;2023-03-14T14:31:32;6.35;;;1.67;;
46463;SDS011;32161;48.148;-1.554;2023-03-14T14:34:02;6.45;;;1.45;;
46463;SDS011;32161;48.148;-1.554;2023-03-14T14:36:31;6.68;;;1.75;;
46463;SDS011;32161;48.148;-1.554;2023-03-14T14:39:04;12.75;;;2.50;;
46463;SDS011;32161;48.148;-1.554;2023-03-14T14:41:41;7.57;;;1.45;;
46463;SDS011;32161;48.148;-1.554;2023-03-14T14:44:10;5.80;;;1.23;;
46463;SDS011;32161;48.148;-1.554;2023-03-14T14:46:40;8.67;;;1.40;;
46463;SDS011;32161;48.148;-1.554;2023-03-14T14:49:10;6.22;;;1.15;;
46463;SDS011;32161;48.148;-1.554;2023-03-14T14:51:42;2.53;;;1.00;;
46463;SDS011;32161;48.148;-1.554;2023-03-14T14:54:14;9.32;;;1.50;;
46463;SDS011;32161;48.148;-1.554;2023-03-14T14:56:47;5.75;;;1.13;;
46463;SDS011;32161;48.148;-1.554;2023-03-14T14:59:20;7.75;;;1.20;;
46463;SDS011;32161;48.148;-1.554;2023-03-14T15:01:55;5.28;;;1.08;;
46463;SDS011;32161;48.148;-1.554;2023-03-14T15:04:25;5.15;;;0.90;;
46463;SDS011;32161;48.148;-1.554;2023-03-14T15:06:56;5.97;;;1.40;;